Latest Weather Observations for Cape Wessel

IDD60801

Issued at 4:31 pm CST Wednesday 29 March 2017 (issued every 30 minutes, with the page automatically refreshed every 10 minutes)

About weather observations | Map of weather stations | Latest weather observations for NT | Other Formats
Station Details ID: 200786 Name: CAPE WESSEL Lat: -11.00 Lon: 136.76 Height: 18.0 m
Data from the previous 72 hours. | See also: Recent months at Cape Wessel
Date/Time
CST
Temp
°C
App
Temp
°C
Dew
Point
°C
Rel
Hum
%
Delta-T
°C
Wind Press
QNH
hPa
Press
MSL
hPa
Rain since
9am
mm
Dir  Spd
km/h
Gust
km/h
Spd
kts
Gust
kts
29/04:30pm 28.5 28.9 24.5 79 2.8 WNW 30 35 16 19 1006.2 1006.1 0.0
29/04:00pm 29.0 30.6 25.2 80 2.7 WNW 26 33 14 18 1006.2 1006.1 0.0
29/03:30pm 29.0 30.1 24.3 76 3.3 WNW 26 32 14 17 1006.3 1006.2 0.0
29/03:00pm 29.2 29.1 23.6 72 3.9 W 30 44 16 24 1006.8 1006.7 0.0
29/02:30pm 30.6 31.2 25.4 74 3.7 NW 32 37 17 20 1007.0 1006.9 0.0
29/02:00pm 30.6 31.7 25.0 72 3.9 NW 28 33 15 18 1006.9 1006.8 0.0
29/01:30pm 31.7 34.2 26.0 72 4.1 NNW 24 30 13 16 1006.8 1006.7 0.0
29/01:00pm 31.1 33.2 25.4 71 4.0 NNW 24 32 13 17 1007.3 1007.2 0.0
29/12:30pm 31.4 34.3 26.0 73 3.9 N 22 28 12 15 1007.7 1007.6 0.0
29/12:00pm 31.6 34.2 25.5 70 4.3 NNW 22 28 12 15 1008.0 1007.9 0.0
29/11:30am 31.5 34.2 25.6 71 4.2 NNW 22 30 12 16 1008.2 1008.1 0.0
29/11:00am 30.5 32.4 24.4 70 4.3 NNW 22 30 12 16 1008.3 1008.2 0.0
29/10:30am 31.0 33.6 24.9 70 4.3 NNW 20 26 11 14 1008.3 1008.2 0.0
29/10:00am 30.6 33.4 25.2 73 3.8 NNW 20 26 11 14 1008.2 1008.1 0.0
29/09:30am 30.2 32.4 24.8 73 3.8 NW 22 28 12 15 1008.4 1008.3 0.0
29/09:00am 29.2 30.8 24.5 76 3.3 NW 24 30 13 16 1008.3 1008.2 0.0
29/08:30am 28.4 29.5 24.4 79 2.8 NNW 26 33 14 18 1008.3 1008.2 0.0
29/08:00am 28.1 28.4 24.3 80 2.6 NNW 30 37 16 20 1008.2 1008.1 0.0
29/07:30am 27.8 28.3 24.0 80 2.6 NNW 28 37 15 20 1007.6 1007.5 0.0
29/07:00am 27.5 27.6 23.9 81 2.5 NNW 30 35 16 19 1007.4 1007.3 0.0
29/06:30am 27.5 27.8 24.9 86 1.8 NNW 32 39 17 21 1007.1 1007.0 0.0
29/06:00am 27.4 28.2 24.5 84 2.0 NNW 28 35 15 19 1006.6 1006.5 0.0
29/05:30am 27.6 27.3 23.8 80 2.6 NNW 32 41 17 22 1006.3 1006.2 0.0
29/05:00am 27.8 28.6 24.4 82 2.4 NNW 28 39 15 21 1006.4 1006.3 0.0
29/04:30am 27.9 29.6 24.7 83 2.2 N 24 32 13 17 1006.2 1006.1 0.0
29/04:00am 27.7 29.7 25.1 86 1.8 NNW 24 30 13 16 1006.5 1006.4 0.0
29/03:30am 27.9 29.0 24.9 84 2.1 NNW 28 33 15 18 1006.6 1006.5 0.0
29/03:00am 28.3 30.9 26.1 88 1.6 NW 24 28 13 15 1006.6 1006.5 0.0
29/02:30am 28.2 31.2 26.2 89 1.4 NW 22 28 12 15 1006.5 1006.4 0.0
29/02:00am 28.5 32.1 26.5 89 1.4 NNW 20 30 11 16 1006.9 1006.8 0.0
29/01:30am 29.0 33.1 27.2 90 1.3 NW 20 30 11 16 1006.9 1006.8 0.0
29/01:00am 28.5 31.6 25.7 85 2.0 NNW 20 26 11 14 1007.4 1007.3 0.0
29/12:30am 28.5 31.9 25.9 86 1.8 NNW 19 24 10 13 1007.6 1007.5 0.0
29/12:00am 28.4 31.2 25.2 83 2.3 NNW 20 24 11 13 1007.7 1007.6 0.0
 
Date/Time
CST
Temp
°C
App
Temp
°C
Dew
Point
°C
Rel
Hum
%
Delta-T
°C
Wind Press
QNH
hPa
Press
MSL
hPa
Rain since
9am
mm
Dir  Spd
km/h
Gust
km/h
Spd
kts
Gust
kts
28/11:30pm 29.0 32.3 27.2 90 1.3 NW 24 30 13 16 1007.8 1007.7 0.0
28/11:00pm 29.0 33.0 27.6 92 1.0 NW 22 28 12 15 1008.2 1008.1 0.0
28/10:30pm 29.2 33.3 27.2 89 1.4 NW 20 26 11 14 1008.2 1008.1 0.0
28/10:00pm 29.2 33.2 27.0 88 1.6 NW 20 26 11 14 1008.4 1008.3 0.0
28/09:30pm 29.2 33.0 26.8 87 1.7 NW 20 24 11 13 1008.3 1008.2 0.0
28/09:00pm 29.3 33.1 26.7 86 1.9 WNW 20 26 11 14 1007.8 1007.7 0.0
28/08:30pm 29.3 32.7 26.7 86 1.9 WNW 22 26 12 14 1007.1 1007.0 0.0
28/08:00pm 29.2 32.1 26.6 86 1.9 WNW 24 28 13 15 1006.8 1006.7 0.0
28/07:30pm 29.1 32.1 26.7 87 1.7 WNW 24 28 13 15 1006.5 1006.4 0.0
28/07:00pm 29.3 31.4 26.5 85 2.0 W 28 32 15 17 1006.3 1006.2 0.0
28/06:30pm 29.3 31.4 26.5 85 2.0 W 28 32 15 17 1005.6 1005.5 0.0
28/06:00pm 29.0 30.8 26.6 87 1.7 W 30 35 16 19 1005.3 1005.2 0.0
28/05:30pm 28.8 29.4 25.6 83 2.3 W 33 37 18 20 1005.6 1005.5 0.0
28/05:00pm 29.1 30.9 26.1 84 2.1 W 28 37 15 20 1005.6 1005.5 0.0
28/04:30pm 29.2 30.7 26.2 84 2.1 W 30 37 16 20 1005.6 1005.5 0.0
28/04:00pm 29.3 30.2 26.1 83 2.3 W 33 41 18 22 1005.3 1005.2 0.0
28/03:30pm 29.3 30.3 25.9 82 2.4 W 32 39 17 21 1005.5 1005.4 0.0
28/03:00pm 29.5 29.8 25.7 80 2.7 W 35 44 19 24 1005.8 1005.7 0.0
28/02:30pm 29.6 30.0 26.0 81 2.6 W 35 44 19 24 1006.0 1005.9 0.0
28/02:00pm 29.5 30.4 26.1 82 2.4 W 33 41 18 22 1006.2 1006.1 0.0
28/01:30pm 29.7 29.8 26.1 81 2.6 W 37 44 20 24 1006.3 1006.2 0.0
28/01:00pm 30.3 30.4 26.0 78 3.1 W 37 46 20 25 1006.6 1006.5 0.0
28/12:30pm 31.1 31.0 25.7 73 3.8 W 37 46 20 25 1007.4 1007.3 0.0
28/12:00pm 31.0 30.6 25.8 74 3.7 W 39 46 21 25 1007.8 1007.7 0.0
28/11:30am 32.0 31.6 26.5 72 4.0 W 41 48 22 26 1008.2 1008.1 0.0
28/11:00am 31.2 31.3 26.0 74 3.7 W 37 46 20 25 1008.4 1008.3 0.0
28/10:30am 31.5 31.4 26.3 74 3.7 W 39 44 21 24 1008.5 1008.4 0.0
28/10:00am 31.1 31.8 26.4 76 3.4 W 35 43 19 23 1008.9 1008.8 0.0
28/09:30am 30.8 31.7 26.7 79 2.9 W 35 43 19 23 1009.0 1008.9 0.0
28/09:00am 29.8 30.4 26.2 81 2.6 W 35 41 19 22 1009.0 1008.9 15.4
28/08:30am 29.8 32.0 26.6 83 2.3 WNW 28 35 15 19 1008.9 1008.8 15.4
28/08:00am 29.5 31.5 26.3 83 2.3 WNW 28 35 15 19 1008.9 1008.8 15.4
28/07:30am 29.3 30.8 26.7 86 1.9 WNW 32 39 17 21 1008.5 1008.4 15.4
28/07:00am 29.1 30.1 26.3 85 2.0 WNW 33 39 18 21 1008.2 1008.1 15.4
28/06:30am 28.9 31.0 26.5 87 1.7 WNW 28 35 15 19 1008.0 1007.9 15.4
28/06:00am 28.4 31.4 25.6 85 2.0 WNW 20 26 11 14 1007.9 1007.8 15.4
28/05:30am 28.5 31.1 25.5 84 2.1 WNW 22 28 12 15 1007.7 1007.6 15.4
28/05:00am 28.5 30.2 25.3 83 2.3 WNW 26 30 14 16 1007.5 1007.4 15.4
28/04:30am 28.4 30.2 24.8 81 2.5 W 24 30 13 16 1007.4 1007.3 15.4
28/04:00am 28.3 30.0 24.7 81 2.5 WNW 24 30 13 16 1007.2 1007.1 15.4
28/03:30am 28.2 30.5 25.0 83 2.2 W 22 26 12 14 1007.3 1007.2 15.4
28/03:00am 28.2 30.9 25.6 86 1.8 W 22 26 12 14 1007.3 1007.2 15.4
28/02:30am 28.5 31.4 25.9 86 1.8 W 22 28 12 15 1007.8 1007.7 15.4
28/02:00am 28.8 30.6 26.0 85 2.0 WNW 28 33 15 18 1008.0 1007.9 15.4
28/01:30am 28.7 30.5 25.5 83 2.3 WNW 26 32 14 17 1008.4 1008.3 15.4
28/01:00am 28.8 30.1 25.2 81 2.5 WNW 28 33 15 18 1008.8 1008.7 15.4
28/12:30am 28.8 30.2 25.4 82 2.4 WNW 28 33 15 18 1009.2 1009.1 15.4
28/12:00am 28.8 31.2 25.8 84 2.1 WNW 24 30 13 16 1009.3 1009.2 15.4
 
Date/Time
CST
Temp
°C
App
Temp
°C
Dew
Point
°C
Rel
Hum
%
Delta-T
°C
Wind Press
QNH
hPa
Press
MSL
hPa
Rain since
9am
mm
Dir  Spd
km/h
Gust
km/h
Spd
kts
Gust
kts
27/11:30pm 28.9 30.2 25.3 81 2.5 WNW 28 32 15 17 1009.5 1009.4 15.4
27/11:00pm 28.9 30.1 25.7 83 2.3 WNW 30 37 16 20 1009.7 1009.6 15.4
27/10:30pm 28.9 30.9 26.3 86 1.9 WNW 28 39 15 21 1009.3 1009.2 15.4
27/10:00pm 28.8 28.6 26.2 86 1.8 NW 39 46 21 25 1008.2 1008.1 15.4
27/09:30pm 28.6 29.2 26.2 87 1.7 NW 35 44 19 24 1008.5 1008.4 15.4
27/09:00pm 28.4 29.3 25.8 86 1.8 WNW 32 37 17 20 1008.8 1008.7 15.4
27/08:30pm 28.5 30.1 25.7 85 2.0 WNW 28 35 15 19 1008.7 1008.6 15.4
27/08:00pm 28.3 30.1 25.5 85 2.0 WNW 26 32 14 17 1008.5 1008.4 15.4
27/07:30pm 27.9 31.0 26.3 91 1.1 NW 22 26 12 14 1008.4 1008.3 15.4
27/07:00pm 27.9 30.4 25.9 89 1.4 NW 24 28 13 15 1008.6 1008.5 15.4
27/06:30pm 28.0 31.3 26.0 89 1.4 NW 20 26 11 14 1008.5 1008.4 15.4
27/06:00pm 27.7 31.5 26.8 95 0.6 NW 20 26 11 14 1008.1 1008.0 15.4
27/05:30pm 27.1 32.5 26.6 97 0.4 N 11 17 6 9 1008.3 1008.2 15.4
27/05:00pm 25.6 27.8 24.0 91 1.1 NNW 19 26 10 14 1008.0 1007.9 15.2
27/04:30pm 26.3 27.4 25.6 96 0.5 WNW 30 39 16 21 1008.1 1008.0 14.2
27/04:00pm 27.5 31.6 27.2 98 0.2 WSW 20 26 11 14 1008.4 1008.3 7.4
27/03:30pm 27.7 29.8 26.5 93 0.9 WNW 28 35 15 19 1008.2 1008.1 5.2
27/03:00pm 28.3 30.4 25.9 87 1.7 NW 26 33 14 18 1007.8 1007.7 0.2
27/02:30pm 28.3 30.6 25.7 86 1.8 WNW 24 32 13 17 1008.5 1008.4 0.2
27/02:00pm 29.5 31.5 25.7 80 2.7 NW 26 35 14 19 1008.5 1008.4 0.0
27/01:30pm 29.8 31.1 25.3 77 3.2 WNW 28 35 15 19 1009.1 1009.0 0.0
27/01:00pm 29.8 31.1 25.3 77 3.2 NW 28 35 15 19 1009.2 1009.1 0.0
27/12:30pm 29.9 31.4 25.6 78 3.0 WNW 28 35 15 19 1009.8 1009.7 0.0
27/12:00pm 29.5 30.6 25.0 77 3.2 WNW 28 33 15 18 1010.2 1010.1 0.0
27/11:30am 30.1 31.2 26.1 79 2.9 WNW 32 37 17 20 1010.1 1010.0 0.0
27/11:00am 29.7 30.9 25.7 79 2.8 WNW 30 37 16 20 1010.6 1010.5 0.0
27/10:30am 29.6 29.5 25.1 77 3.2 WNW 35 41 19 22 1010.7 1010.6 0.0
27/10:00am 29.5 30.2 25.5 79 2.8 WNW 32 37 17 20 1011.0 1010.9 0.0
27/09:30am 29.5 29.5 25.3 78 3.0 WNW 35 41 19 22 1011.2 1011.1 0.0
27/09:00am 29.4 28.3 24.7 76 3.3 WNW 39 46 21 25 1010.9 1010.8 0.8
27/08:30am 29.3 28.8 25.1 78 3.0 WNW 37 44 20 24 1010.5 1010.4 0.8
27/08:00am 29.2 29.3 25.4 80 2.7 WNW 35 41 19 22 1010.4 1010.3 0.8
27/07:30am 29.1 29.1 25.3 80 2.7 WNW 35 43 19 23 1009.9 1009.8 0.8
27/07:00am 29.0 28.8 25.0 79 2.8 WNW 35 41 19 22 1009.9 1009.8 0.8
27/06:30am 29.0 28.3 24.8 78 2.9 WNW 37 41 20 22 1009.9 1009.8 0.8
27/06:00am 28.9 27.9 24.9 79 2.8 WNW 39 44 21 24 1009.7 1009.6 0.8
27/05:30am 28.8 28.0 24.6 78 2.9 WNW 37 44 20 24 1009.1 1009.0 0.8
27/05:00am 28.8 29.2 25.0 80 2.7 WNW 32 41 17 22 1008.8 1008.7 0.8
27/04:30am 28.9 29.5 25.3 81 2.5 WNW 32 37 17 20 1008.6 1008.5 0.8
27/04:00am 28.8 29.8 25.4 82 2.4 WNW 30 35 16 19 1008.5 1008.4 0.8
27/03:30am 28.8 29.3 25.2 81 2.5 WNW 32 37 17 20 1008.9 1008.8 0.8
27/03:00am 28.7 29.9 25.1 81 2.5 WNW 28 33 15 18 1009.1 1009.0 0.8
27/02:30am 28.8 29.7 25.2 81 2.5 WNW 30 37 16 20 1009.3 1009.2 0.8
27/02:00am 28.8 29.2 25.0 80 2.7 WNW 32 35 17 19 1009.8 1009.7 0.8
27/01:30am 28.9 29.2 24.9 79 2.8 WNW 32 37 17 20 1010.3 1010.2 0.8
27/01:00am 28.9 29.2 24.9 79 2.8 WNW 32 37 17 20 1010.5 1010.4 0.8
27/12:30am 28.9 29.2 24.9 79 2.8 WNW 32 37 17 20 1011.0 1010.9 0.8
27/12:00am 29.0 29.8 25.0 79 2.8 WNW 30 35 16 19 1011.4 1011.3 0.8
 
Date/Time
CST
Temp
°C
App
Temp
°C
Dew
Point
°C
Rel
Hum
%
Delta-T
°C
Wind Press
QNH
hPa
Press
MSL
hPa
Rain since
9am
mm
Dir  Spd
km/h
Gust
km/h
Spd
kts
Gust
kts
26/11:30pm 29.0 29.4 25.0 79 2.8 WNW 32 35 17 19 1011.2 1011.1 0.8
26/11:00pm 28.9 29.6 24.9 79 2.8 WNW 30 35 16 19 1011.4 1011.3 0.8
26/10:30pm 28.7 29.1 25.1 81 2.5 WNW 32 35 17 19 1011.3 1011.2 0.8
26/10:00pm 28.6 29.7 24.4 78 2.9 W 26 32 14 17 1011.2 1011.1 0.8
26/09:30pm 28.6 28.9 24.8 80 2.7 WNW 32 39 17 21 1010.7 1010.6 0.8
26/09:00pm 28.7 28.9 24.7 79 2.8 WNW 32 39 17 21 1010.2 1010.1 0.8
26/08:30pm 29.2 30.3 25.6 81 2.5 WNW 30 37 16 20 1009.8 1009.7 0.8
26/08:00pm 28.8 30.2 25.4 82 2.4 NW 28 35 15 19 1009.6 1009.5 0.8
26/07:30pm 28.7 30.8 25.3 82 2.4 WNW 24 32 13 17 1009.3 1009.2 0.8
26/07:00pm 28.6 29.6 25.4 83 2.3 WNW 30 37 16 20 1009.2 1009.1 0.8
26/06:30pm 29.0 30.0 24.8 78 2.9 WNW 28 35 15 19 1008.6 1008.5 0.8
26/06:00pm 29.3 31.0 25.3 79 2.8 NW 26 32 14 17 1008.3 1008.2 0.8
26/05:30pm 29.6 31.6 25.1 77 3.2 NW 24 32 13 17 1007.8 1007.7 0.8
26/05:00pm 30.2 31.7 25.5 76 3.3 WNW 28 33 15 18 1007.4 1007.3 0.8

Other Formats:

Comma delimited format used in spreadsheet applications
http://www.bom.gov.au/fwo/IDD60801/IDD60801.94147.axf

JavaScript Object Notation format (JSON) in row-major order
http://www.bom.gov.au/fwo/IDD60801/IDD60801.94147.json